Time,TemperatureF,DewpointF,PressureIn,WindDirection,WindDirectionDegrees,WindSpeedMPH,WindSpeedGustMPH,Humidity,HourlyPrecipIn,Conditions,Clouds,dailyrainin,SoftwareType,DateUTC
2013-12-11 00:01:00,12.6,8.6,30.30,WNW,292,0.0,0.0,84,0.00,,CLR,0.00,VWS V14.01,2013-12-11 05:01:00,
2013-12-11 00:06:00,13.3,9.4,30.30,WNW,292,0.0,0.0,84,0.00,,CLR,0.00,VWS V14.01,2013-12-11 05:06:00,
2013-12-11 00:11:00,12.7,8.8,30.33,WNW,292,0.0,0.0,84,0.00,,CLR,0.00,VWS V14.01,2013-12-11 05:11:00,
2013-12-11 00:16:00,12.4,8.5,30.33,WNW,292,0.0,0.0,84,0.00,,CLR,0.00,VWS V14.01,2013-12-11 05:16:00,
2013-12-11 00:21:00,12.9,9.0,30.33,WNW,292,0.0,0.0,84,0.00,,CLR,0.00,VWS V14.01,2013-12-11 05:21:00,
2013-12-11 00:26:00,12.6,8.6,30.33,WNW,292,0.0,0.0,84,0.00,,CLR,0.00,VWS V14.01,2013-12-11 05:26:00,
2013-12-11 00:31:00,12.6,8.6,30.33,WNW,292,0.0,0.0,84,0.00,,CLR,0.00,VWS V14.01,2013-12-11 05:31:00,
2013-12-11 00:36:00,12.2,8.3,30.33,WNW,292,0.0,0.0,84,0.00,,CLR,0.00,VWS V14.01,2013-12-11 05:36:00,
2013-12-11 00:41:00,12.2,8.3,30.33,WNW,292,0.0,0.0,84,0.00,,CLR,0.00,VWS V14.01,2013-12-11 05:41:00,
2013-12-11 00:46:00,12.2,8.3,30.33,WNW,292,0.0,0.0,84,0.00,,CLR,0.00,VWS V14.01,2013-12-11 05:46:00,
2013-12-11 00:51:00,12.2,8.3,30.33,WNW,292,0.0,0.0,84,0.00,,CLR,0.00,VWS V14.01,2013-12-11 05:51:00,
2013-12-11 00:56:00,12.2,8.3,30.33,WNW,292,0.0,0.0,84,0.00,,CLR,0.00,VWS V14.01,2013-12-11 05:56:00,
2013-12-11 01:01:00,12.2,8.3,30.33,WNW,292,0.0,0.0,84,0.00,,CLR,0.00,VWS V14.01,2013-12-11 06:01:00,
2013-12-11 01:06:00,12.2,8.3,30.33,WNW,292,0.0,0.0,84,0.00,,CLR,0.00,VWS V14.01,2013-12-11 06:06:00,
2013-12-11 01:11:00,12.2,8.3,30.33,WNW,292,0.0,0.0,84,0.00,,CLR,0.00,VWS V14.01,2013-12-11 06:11:00,
2013-12-11 01:16:00,12.2,8.3,30.33,WNW,292,0.0,0.0,84,0.00,,CLR,0.00,VWS V14.01,2013-12-11 06:16:00,
2013-12-11 01:21:00,12.2,8.3,30.33,WNW,292,0.0,0.0,84,0.00,,CLR,0.00,VWS V14.01,2013-12-11 06:21:00,
2013-12-11 01:26:00,12.2,8.3,30.33,WNW,292,0.0,0.0,84,0.00,,CLR,0.00,VWS V14.01,2013-12-11 06:26:00,
2013-12-11 01:31:00,12.2,8.3,30.33,WNW,292,0.0,0.0,84,0.00,,CLR,0.00,VWS V14.01,2013-12-11 06:31:00,
2013-12-11 01:36:00,12.2,8.3,30.33,WNW,292,0.0,0.0,84,0.00,,CLR,0.00,VWS V14.01,2013-12-11 06:36:00,
2013-12-11 01:40:00,12.2,8.3,30.33,WNW,292,0.0,0.0,84,0.00,,CLR,0.00,VWS V14.01,2013-12-11 06:40:00,
2013-12-11 01:41:00,12.2,8.3,30.33,WNW,292,0.0,0.0,84,0.00,,CLR,0.00,VWS V14.01,2013-12-11 06:41:00,
2013-12-11 01:46:00,12.2,8.3,30.33,WNW,292,0.0,0.0,84,0.00,,CLR,0.00,VWS V14.01,2013-12-11 06:46:00,
2013-12-11 02:02:00,12.2,8.3,30.33,WNW,292,0.0,0.0,84,0.00,,CLR,0.00,VWS V14.01,2013-12-11 07:02:00,
2013-12-11 02:36:00,12.2,8.3,30.33,WNW,292,0.0,0.0,84,0.00,,CLR,0.00,VWS V14.01,2013-12-11 07:36:00,
2013-12-11 02:41:00,12.2,8.3,30.33,WNW,292,0.0,0.0,84,0.00,,CLR,0.00,VWS V14.01,2013-12-11 07:41:00,
2013-12-11 02:46:00,12.2,8.3,30.33,WNW,292,0.0,0.0,84,0.00,,CLR,0.00,VWS V14.01,2013-12-11 07:46:00,
2013-12-11 02:51:00,12.2,8.3,30.33,WNW,292,0.0,0.0,84,0.00,,CLR,0.00,VWS V14.01,2013-12-11 07:51:00,
2013-12-11 02:59:00,12.2,8.3,30.33,WNW,292,0.0,0.0,84,0.00,,CLR,0.00,VWS V14.01,2013-12-11 07:59:00,
2013-12-11 03:04:00,12.2,8.3,30.33,WNW,292,0.0,0.0,84,0.00,,CLR,0.00,VWS V14.01,2013-12-11 08:04:00,
2013-12-11 03:10:00,12.2,8.3,30.33,WNW,292,0.0,0.0,84,0.00,,CLR,0.00,VWS V14.01,2013-12-11 08:10:00,
2013-12-11 03:28:00,12.2,8.3,30.33,WNW,292,0.0,0.0,84,0.00,,CLR,0.00,VWS V14.01,2013-12-11 08:28:00,
2013-12-11 03:36:00,12.2,8.3,30.33,WNW,292,0.0,0.0,84,0.00,,CLR,0.00,VWS V14.01,2013-12-11 08:36:00,
2013-12-11 03:45:00,12.2,8.3,30.33,WNW,292,0.0,0.0,84,0.00,,CLR,0.00,VWS V14.01,2013-12-11 08:45:00,
2013-12-11 03:54:00,12.2,8.3,30.33,WNW,292,0.0,0.0,84,0.00,,CLR,0.00,VWS V14.01,2013-12-11 08:54:00,
2013-12-11 04:04:00,12.2,8.3,30.33,WNW,292,0.0,0.0,84,0.00,,CLR,0.00,VWS V14.01,2013-12-11 09:04:00,
2013-12-11 04:11:00,12.2,8.3,30.33,WNW,292,0.0,0.0,84,0.00,,CLR,0.00,VWS V14.01,2013-12-11 09:11:00,
2013-12-11 04:23:00,12.2,8.3,30.33,WNW,292,0.0,0.0,84,0.00,,CLR,0.00,VWS V14.01,2013-12-11 09:23:00,
2013-12-11 04:30:00,12.2,8.3,30.33,WNW,292,0.0,0.0,84,0.00,,CLR,0.00,VWS V14.01,2013-12-11 09:30:00,
2013-12-11 04:50:00,12.2,8.3,30.33,WNW,292,0.0,0.0,84,0.00,,CLR,0.00,VWS V14.01,2013-12-11 09:50:00,
2013-12-11 05:03:00,12.2,8.3,30.33,WNW,292,0.0,0.0,84,0.00,,CLR,0.00,VWS V14.01,2013-12-11 10:03:00,
2013-12-11 05:19:00,12.2,8.3,30.33,WNW,292,0.0,0.0,84,0.00,,CLR,0.00,VWS V14.01,2013-12-11 10:19:00,
2013-12-11 05:26:00,12.2,8.3,30.33,WNW,292,0.0,0.0,84,0.00,,CLR,0.00,VWS V14.01,2013-12-11 10:26:00,
2013-12-11 06:11:00,12.2,8.3,30.33,WNW,292,0.0,0.0,84,0.00,,CLR,0.00,VWS V14.01,2013-12-11 11:11:00,
2013-12-11 06:18:00,12.2,8.3,30.33,WNW,292,0.0,0.0,84,0.00,,CLR,0.00,VWS V14.01,2013-12-11 11:18:00,
2013-12-11 06:28:00,12.2,8.3,30.33,WNW,292,0.0,0.0,84,0.00,,CLR,0.00,VWS V14.01,2013-12-11 11:28:00,
2013-12-11 06:44:00,12.2,8.3,30.33,WNW,292,0.0,0.0,84,0.00,,CLR,0.00,VWS V14.01,2013-12-11 11:44:00,
2013-12-11 06:53:00,12.2,8.3,30.33,WNW,292,0.0,0.0,84,0.00,,CLR,0.00,VWS V14.01,2013-12-11 11:53:00,
2013-12-11 06:58:00,12.2,8.3,30.33,WNW,292,0.0,0.0,84,0.00,,CLR,0.00,VWS V14.01,2013-12-11 11:58:00,
2013-12-11 07:09:00,12.2,8.3,30.33,WNW,292,0.0,0.0,84,0.00,,CLR,0.00,VWS V14.01,2013-12-11 12:09:00,
2013-12-11 07:51:00,7.0,3.2,30.39,WNW,292,0.0,0.0,84,0.00,,,0.00,VWS V14.01,2013-12-11 12:51:00,
2013-12-11 07:56:00,7.2,3.3,30.39,WNW,292,0.0,0.0,84,0.00,,,0.00,VWS V14.01,2013-12-11 12:56:00,
2013-12-11 08:01:00,7.0,3.2,30.39,WNW,292,0.0,0.0,84,0.00,,CLR,0.00,VWS V14.01,2013-12-11 13:01:00,
2013-12-11 08:06:00,7.0,3.2,30.39,WNW,292,0.0,0.0,84,0.00,,CLR,0.00,VWS V14.01,2013-12-11 13:06:00,
2013-12-11 08:11:00,7.3,3.5,30.39,WNW,292,0.0,0.0,84,0.00,,CLR,0.00,VWS V14.01,2013-12-11 13:11:00,
2013-12-11 08:16:00,7.9,4.1,30.39,WNW,292,0.0,0.0,84,0.00,,CLR,0.00,VWS V14.01,2013-12-11 13:16:00,
2013-12-11 08:21:00,8.1,4.2,30.39,WNW,292,0.0,0.0,84,0.00,,CLR,0.00,VWS V14.01,2013-12-11 13:21:00,
2013-12-11 08:26:00,8.4,4.6,30.36,WNW,292,0.0,0.0,84,0.00,,CLR,0.00,VWS V14.01,2013-12-11 13:26:00,
2013-12-11 08:31:00,8.4,4.6,30.36,WNW,292,0.0,0.0,84,0.00,,CLR,0.00,VWS V14.01,2013-12-11 13:31:00,
2013-12-11 08:36:00,8.8,4.9,30.36,WNW,292,0.0,0.0,84,0.00,,CLR,0.00,VWS V14.01,2013-12-11 13:36:00,
2013-12-11 08:41:00,9.1,5.3,30.39,WNW,292,0.0,0.0,84,0.00,,CLR,0.00,VWS V14.01,2013-12-11 13:41:00,
2013-12-11 08:46:00,9.5,5.7,30.39,WNW,292,0.0,0.0,84,0.00,,CLR,0.00,VWS V14.01,2013-12-11 13:46:00,
2013-12-11 08:51:00,9.5,5.7,30.39,WNW,292,0.0,0.0,84,0.00,,CLR,0.00,VWS V14.01,2013-12-11 13:51:00,
2013-12-11 08:56:00,10.0,6.2,30.39,WNW,292,0.0,0.0,84,0.00,,CLR,0.00,VWS V14.01,2013-12-11 13:56:00,
2013-12-11 09:01:00,10.9,7.1,30.39,WNW,292,0.0,0.0,84,0.00,,CLR,0.00,VWS V14.01,2013-12-11 14:01:00,
2013-12-11 09:06:00,11.7,7.8,30.39,WNW,292,0.0,0.0,84,0.00,,CLR,0.00,VWS V14.01,2013-12-11 14:06:00,
2013-12-11 09:11:00,14.9,10.7,30.39,WNW,292,0.0,0.0,83,0.00,,CLR,0.00,VWS V14.01,2013-12-11 14:11:00,
2013-12-11 09:16:00,17.1,13.3,30.39,WNW,292,0.0,0.0,85,0.00,,CLR,0.00,VWS V14.01,2013-12-11 14:16:00,
2013-12-11 09:21:00,19.6,16.1,30.39,WNW,292,0.0,0.0,86,0.00,,CLR,0.00,VWS V14.01,2013-12-11 14:21:00,
2013-12-11 09:26:00,22.6,19.6,30.39,WNW,292,0.0,0.0,88,0.00,,CLR,0.00,VWS V14.01,2013-12-11 14:26:00,
2013-12-11 09:31:00,27.0,24.2,30.39,WNW,292,0.0,0.0,89,0.00,,CLR,0.00,VWS V14.01,2013-12-11 14:31:00,
2013-12-11 09:36:00,29.8,27.3,30.39,WNW,292,0.0,0.0,90,0.00,,CLR,0.00,VWS V14.01,2013-12-11 14:36:00,
2013-12-11 09:41:00,30.7,27.6,30.39,WNW,292,0.0,0.0,88,0.00,,CLR,0.00,VWS V14.01,2013-12-11 14:41:00,
2013-12-11 09:46:00,32.9,28.9,30.39,WNW,292,0.0,0.0,85,0.00,,CLR,0.00,VWS V14.01,2013-12-11 14:46:00,
2013-12-11 09:51:00,34.3,30.3,30.39,WNW,292,0.0,0.0,85,0.00,,CLR,0.00,VWS V14.01,2013-12-11 14:51:00,
2013-12-11 09:56:00,34.3,30.3,30.39,WNW,292,0.0,0.0,85,0.00,,CLR,0.00,VWS V14.01,2013-12-11 14:56:00,
2013-12-11 10:01:00,34.3,30.3,30.39,WNW,292,0.0,0.0,85,0.00,,CLR,0.00,VWS V14.01,2013-12-11 15:01:00,
2013-12-11 10:06:00,37.0,24.5,30.39,WNW,292,0.0,0.0,60,0.00,,CLR,0.00,VWS V14.01,2013-12-11 15:06:00,
2013-12-11 10:11:00,37.0,24.5,30.39,WNW,292,0.0,1.1,60,0.00,,CLR,0.00,VWS V14.01,2013-12-11 15:11:00,
2013-12-11 10:16:00,37.9,19.0,30.39,WNW,292,0.0,0.0,46,0.00,,CLR,0.00,VWS V14.01,2013-12-11 15:16:00,
2013-12-11 10:21:00,39.6,18.9,30.39,SE,135,0.9,0.9,43,0.00,,CLR,0.00,VWS V14.01,2013-12-11 15:21:00,
2013-12-11 10:26:00,39.2,17.5,30.39,SE,135,0.0,0.0,41,0.00,,CLR,0.00,VWS V14.01,2013-12-11 15:26:00,
2013-12-11 10:31:00,39.4,17.7,30.39,South,180,0.0,0.9,41,0.00,,CLR,0.00,VWS V14.01,2013-12-11 15:31:00,
2013-12-11 10:36:00,40.5,18.1,30.39,ESE,112,1.1,2.5,40,0.00,,CLR,0.00,VWS V14.01,2013-12-11 15:36:00,
2013-12-11 10:41:00,41.9,18.8,30.39,East,90,0.0,1.1,39,0.00,,CLR,0.00,VWS V14.01,2013-12-11 15:41:00,
2013-12-11 10:46:00,42.8,19.0,30.39,East,90,0.0,0.0,38,0.00,,CLR,0.00,VWS V14.01,2013-12-11 15:46:00,
2013-12-11 10:51:00,43.7,19.8,30.39,SSE,158,0.0,0.0,38,0.00,,CLR,0.00,VWS V14.01,2013-12-11 15:51:00,
2013-12-11 10:56:00,47.3,23.0,30.39,SE,135,0.0,0.0,38,0.00,,CLR,0.00,VWS V14.01,2013-12-11 15:56:00,
2013-12-11 11:01:00,46.0,21.2,30.39,SE,135,0.0,1.3,37,0.00,,CLR,0.00,VWS V14.01,2013-12-11 16:01:00,
2013-12-11 11:06:00,46.4,19.6,30.39,ESE,112,0.0,0.0,34,0.00,,CLR,0.00,VWS V14.01,2013-12-11 16:06:00,
2013-12-11 11:11:00,46.6,18.3,30.36,ESE,112,0.0,0.0,32,0.00,,CLR,0.00,VWS V14.01,2013-12-11 16:11:00,
2013-12-11 11:16:00,48.2,19.0,30.36,ESE,112,0.0,1.3,31,0.00,,CLR,0.00,VWS V14.01,2013-12-11 16:16:00,
2013-12-11 11:21:00,48.4,19.2,30.36,East,90,0.0,0.0,31,0.00,,CLR,0.00,VWS V14.01,2013-12-11 16:21:00,
2013-12-11 11:26:00,50.5,20.3,30.36,ESE,112,0.0,0.0,30,0.00,,CLR,0.00,VWS V14.01,2013-12-11 16:26:00,
2013-12-11 11:31:00,50.4,20.1,30.36,ESE,112,0.0,0.0,30,0.00,,CLR,0.00,VWS V14.01,2013-12-11 16:31:00,
2013-12-11 11:36:00,50.4,20.1,30.36,NW,315,0.0,0.0,30,0.00,,CLR,0.00,VWS V14.01,2013-12-11 16:36:00,
2013-12-11 11:41:00,50.4,20.1,30.36,NNW,338,0.0,0.0,30,0.00,,CLR,0.00,VWS V14.01,2013-12-11 16:41:00,
2013-12-11 11:46:00,55.9,22.5,30.36,ENE,68,0.0,0.0,27,0.00,,CLR,0.00,VWS V14.01,2013-12-11 16:46:00,
2013-12-11 11:51:00,55.9,22.5,30.36,South,180,0.0,0.0,27,0.00,,CLR,0.00,VWS V14.01,2013-12-11 16:51:00,
2013-12-11 11:56:00,55.9,22.5,30.36,WSW,248,0.0,0.0,27,0.00,,CLR,0.00,VWS V14.01,2013-12-11 16:56:00,
2013-12-11 12:01:00,54.1,20.0,30.36,SE,135,0.0,0.0,26,0.00,,CLR,0.00,VWS V14.01,2013-12-11 17:01:00,
2013-12-11 12:06:00,54.1,20.0,30.36,East,90,0.0,0.0,26,0.00,,CLR,0.00,VWS V14.01,2013-12-11 17:06:00,
2013-12-11 12:11:00,54.1,20.0,30.33,SW,225,0.0,0.0,26,0.00,,CLR,0.00,VWS V14.01,2013-12-11 17:11:00,
2013-12-11 12:16:00,54.1,20.0,30.33,East,90,0.9,0.9,26,0.00,,CLR,0.00,VWS V14.01,2013-12-11 17:16:00,
2013-12-11 12:21:00,54.1,20.0,30.33,ESE,112,0.0,0.0,26,0.00,,CLR,0.00,VWS V14.01,2013-12-11 17:21:00,
2013-12-11 12:26:00,50.5,17.0,30.30,South,180,0.0,0.0,26,0.00,,CLR,0.00,VWS V14.01,2013-12-11 17:26:00,
2013-12-11 12:31:00,50.5,17.0,30.30,South,180,0.0,0.0,26,0.00,,CLR,0.00,VWS V14.01,2013-12-11 17:31:00,
2013-12-11 12:36:00,50.5,17.0,30.30,SE,135,0.0,0.0,26,0.00,,CLR,0.00,VWS V14.01,2013-12-11 17:36:00,
2013-12-11 12:41:00,50.5,17.0,30.33,West,270,0.0,4.0,26,0.00,,CLR,0.00,VWS V14.01,2013-12-11 17:41:00,
2013-12-11 12:46:00,50.5,17.0,30.33,SW,225,0.0,0.0,26,0.00,,CLR,0.00,VWS V14.01,2013-12-11 17:46:00,
2013-12-11 12:51:00,50.5,17.0,30.33,SSE,158,0.0,0.0,26,0.00,,CLR,0.00,VWS V14.01,2013-12-11 17:51:00,
2013-12-11 12:56:00,50.5,17.0,30.30,South,180,0.0,0.0,26,0.00,,CLR,0.00,VWS V14.01,2013-12-11 17:56:00,
2013-12-11 13:01:00,50.5,17.0,30.30,West,270,0.0,0.0,26,0.04,,CLR,0.04,VWS V14.01,2013-12-11 18:01:00,
2013-12-11 13:06:00,49.1,15.7,30.30,South,180,3.4,4.0,26,0.04,,CLR,0.04,VWS V14.01,2013-12-11 18:06:00,
2013-12-11 13:11:00,50.2,16.6,30.30,SE,135,0.9,0.9,26,0.04,,CLR,0.04,VWS V14.01,2013-12-11 18:11:00,
2013-12-11 13:16:00,50.0,16.5,30.30,WSW,248,2.9,2.9,26,0.04,,CLR,0.04,VWS V14.01,2013-12-11 18:16:00,
2013-12-11 13:21:00,50.9,17.2,30.30,East,90,4.3,5.4,26,0.08,,CLR,0.08,VWS V14.01,2013-12-11 18:21:00,
2013-12-11 13:25:00,47.3,15.0,30.27,SE,135,6.5,6.5,27,0.08,,CLR,0.08,VWS V14.01,2013-12-11 18:25:00,
2013-12-11 13:30:00,47.7,15.3,30.27,SE,135,5.4,5.4,27,0.08,,CLR,0.08,VWS V14.01,2013-12-11 18:30:00,
2013-12-11 13:35:00,46.8,14.6,30.27,SSE,158,4.3,4.3,27,0.08,,CLR,0.08,VWS V14.01,2013-12-11 18:35:00,
2013-12-11 13:40:00,47.5,15.2,30.27,SSE,158,2.9,4.3,27,0.08,,CLR,0.08,VWS V14.01,2013-12-11 18:40:00,
2013-12-11 13:46:00,47.1,14.9,30.27,SE,135,7.6,7.8,27,0.12,,CLR,0.12,VWS V14.01,2013-12-11 18:46:00,
2013-12-11 13:51:00,47.5,15.2,30.27,WSW,248,2.0,2.0,27,0.12,,CLR,0.12,VWS V14.01,2013-12-11 18:51:00,
2013-12-11 13:56:00,47.7,15.3,30.27,ESE,112,3.6,7.4,27,0.12,,CLR,0.12,VWS V14.01,2013-12-11 18:56:00,
2013-12-11 14:01:00,45.5,14.3,30.27,SSW,202,5.8,5.8,28,0.08,,CLR,0.12,VWS V14.01,2013-12-11 19:01:00,
2013-12-11 14:05:00,45.3,14.1,30.27,SSE,158,2.9,4.9,28,0.08,,CLR,0.12,VWS V14.01,2013-12-11 19:05:00,
2013-12-11 14:10:00,46.6,14.4,30.27,South,180,2.9,7.6,27,0.08,,CLR,0.12,VWS V14.01,2013-12-11 19:10:00,
2013-12-11 14:15:00,46.2,14.9,30.27,East,90,2.5,2.5,28,0.13,,CLR,0.17,VWS V14.01,2013-12-11 19:15:00,
2013-12-11 14:20:00,47.3,15.0,30.27,South,180,3.8,6.3,27,0.09,,CLR,0.17,VWS V14.01,2013-12-11 19:20:00,
2013-12-11 14:25:00,46.2,14.1,30.27,SSW,202,8.7,8.7,27,0.09,,CLR,0.17,VWS V14.01,2013-12-11 19:25:00,
2013-12-11 14:30:00,45.1,14.0,30.27,South,180,4.9,6.0,28,0.09,,CLR,0.17,VWS V14.01,2013-12-11 19:30:00,
2013-12-11 14:35:00,44.1,13.1,30.27,SSE,158,3.8,5.4,28,0.09,,CLR,0.17,VWS V14.01,2013-12-11 19:35:00,
2013-12-11 14:40:00,44.8,13.7,30.27,South,180,8.7,8.7,28,0.09,,CLR,0.17,VWS V14.01,2013-12-11 19:40:00,
2013-12-11 14:45:00,45.5,14.3,30.27,SSE,158,3.1,3.1,28,0.05,,CLR,0.17,VWS V14.01,2013-12-11 19:45:00,
2013-12-11 14:50:00,45.3,14.1,30.27,ESE,112,2.7,2.7,28,0.05,,CLR,0.17,VWS V14.01,2013-12-11 19:50:00,
2013-12-11 14:55:00,46.4,15.1,30.24,ENE,68,3.4,3.4,28,0.05,,CLR,0.17,VWS V14.01,2013-12-11 19:55:00,
2013-12-11 15:00:00,46.6,15.2,30.24,SW,225,3.4,3.4,28,0.05,,CLR,0.17,VWS V14.01,2013-12-11 20:00:00,
2013-12-11 15:05:00,45.1,14.0,30.24,South,180,6.0,6.0,28,0.05,,CLR,0.17,VWS V14.01,2013-12-11 20:05:00,
2013-12-11 15:10:00,44.6,13.5,30.24,ESE,112,1.6,1.6,28,0.05,,CLR,0.17,VWS V14.01,2013-12-11 20:10:00,
2013-12-11 15:15:00,42.8,12.0,30.24,ESE,112,10.7,10.7,28,0.00,,CLR,0.17,VWS V14.01,2013-12-11 20:15:00,
2013-12-11 15:20:00,42.8,12.0,30.24,SW,225,1.6,3.1,28,0.00,,CLR,0.17,VWS V14.01,2013-12-11 20:20:00,
2013-12-11 15:25:00,43.5,13.4,30.24,West,270,0.9,1.1,29,0.00,,CLR,0.17,VWS V14.01,2013-12-11 20:25:00,
2013-12-11 15:30:00,43.5,13.4,30.24,SW,225,0.0,0.9,29,0.00,,CLR,0.17,VWS V14.01,2013-12-11 20:30:00,
2013-12-11 15:35:00,43.2,13.1,30.24,SE,135,3.8,3.8,29,0.00,,CLR,0.17,VWS V14.01,2013-12-11 20:35:00,
2013-12-11 15:40:00,42.6,12.6,30.24,SE,135,2.9,2.9,29,0.04,,CLR,0.21,VWS V14.01,2013-12-11 20:40:00,
2013-12-11 15:45:00,42.4,12.4,30.24,South,180,0.0,0.0,29,0.04,,CLR,0.21,VWS V14.01,2013-12-11 20:45:00,
2013-12-11 15:50:00,42.1,12.1,30.24,South,180,2.5,2.5,29,0.04,,CLR,0.21,VWS V14.01,2013-12-11 20:50:00,
2013-12-11 15:55:00,41.0,11.2,30.24,SE,135,4.3,4.3,29,0.04,,CLR,0.21,VWS V14.01,2013-12-11 20:55:00,
2013-12-11 16:00:00,40.3,11.3,30.24,SSE,158,8.1,8.1,30,0.04,,CLR,0.21,VWS V14.01,2013-12-11 21:00:00,
2013-12-11 16:05:00,39.9,11.0,30.24,South,180,1.1,1.3,30,0.04,,CLR,0.21,VWS V14.01,2013-12-11 21:05:00,
2013-12-11 16:10:00,39.6,10.7,30.27,SW,225,2.5,3.1,30,0.04,,CLR,0.21,VWS V14.01,2013-12-11 21:10:00,
2013-12-11 16:15:00,39.6,11.4,30.27,East,90,3.4,3.6,31,0.04,,CLR,0.21,VWS V14.01,2013-12-11 21:15:00,
2013-12-11 16:20:00,37.9,10.7,30.27,SE,135,2.5,2.5,32,0.04,,CLR,0.21,VWS V14.01,2013-12-11 21:20:00,
2013-12-11 16:25:00,36.5,11.5,30.27,West,270,2.9,2.9,35,0.04,,CLR,0.21,VWS V14.01,2013-12-11 21:25:00,
2013-12-11 16:30:00,34.9,12.4,30.27,SSW,202,0.0,0.0,39,0.04,,CLR,0.21,VWS V14.01,2013-12-11 21:30:00,
2013-12-11 16:35:00,34.0,12.8,30.27,East,90,1.1,1.6,41,0.04,,CLR,0.21,VWS V14.01,2013-12-11 21:35:00,
2013-12-11 16:40:00,32.9,12.9,30.27,WSW,248,0.0,0.0,43,0.00,,CLR,0.21,VWS V14.01,2013-12-11 21:40:00,
2013-12-11 16:45:00,32.2,14.2,30.27,South,180,0.0,0.0,47,0.00,,CLR,0.21,VWS V14.01,2013-12-11 21:45:00,
2013-12-11 16:50:00,30.7,12.9,30.27,North,0,0.0,0.0,47,0.00,,CLR,0.21,VWS V14.01,2013-12-11 21:50:00,
2013-12-11 16:55:00,30.2,12.4,30.24,East,90,0.0,0.0,47,0.00,,CLR,0.21,VWS V14.01,2013-12-11 21:55:00,
2013-12-11 17:00:00,29.3,11.6,30.24,SW,225,0.0,0.0,47,0.00,,CLR,0.21,VWS V14.01,2013-12-11 22:00:00,
2013-12-11 17:05:00,28.6,11.4,30.24,SSW,202,0.0,0.0,48,0.00,,CLR,0.21,VWS V14.01,2013-12-11 22:05:00,
2013-12-11 17:10:00,27.9,12.1,30.27,South,180,0.0,0.0,51,0.00,,CLR,0.21,VWS V14.01,2013-12-11 22:10:00,
2013-12-11 17:15:00,27.7,14.4,30.27,NE,45,0.0,0.0,57,0.00,,CLR,0.21,VWS V14.01,2013-12-11 22:15:00,
2013-12-11 17:20:00,27.3,13.7,30.27,SW,225,0.0,0.0,56,0.00,,CLR,0.21,VWS V14.01,2013-12-11 22:20:00,
2013-12-11 17:25:00,27.1,13.5,30.27,WSW,248,0.0,0.0,56,0.00,,CLR,0.21,VWS V14.01,2013-12-11 22:25:00,
2013-12-11 17:30:00,26.8,14.0,30.27,SSW,202,0.0,0.0,58,0.00,,CLR,0.21,VWS V14.01,2013-12-11 22:30:00,
2013-12-11 17:35:00,26.4,14.1,30.27,NE,45,0.0,0.0,59,0.00,,CLR,0.21,VWS V14.01,2013-12-11 22:35:00,
2013-12-11 17:40:00,25.7,12.6,30.27,SW,225,0.0,0.0,57,0.00,,CLR,0.21,VWS V14.01,2013-12-11 22:40:00,
2013-12-11 17:45:00,25.5,13.6,30.27,WNW,292,0.0,0.0,60,0.00,,CLR,0.21,VWS V14.01,2013-12-11 22:45:00,
2013-12-11 17:50:00,25.5,14.7,30.27,WSW,248,0.0,0.0,63,0.00,,CLR,0.21,VWS V14.01,2013-12-11 22:50:00,
2013-12-11 17:55:00,25.2,14.0,30.24,WSW,248,0.0,0.0,62,0.00,,CLR,0.21,VWS V14.01,2013-12-11 22:55:00,
2013-12-11 18:00:00,25.3,16.9,30.24,NE,45,0.0,0.0,70,0.00,,CLR,0.21,VWS V14.01,2013-12-11 23:00:00,
2013-12-11 18:05:00,25.2,16.4,30.24,NW,315,0.0,0.0,69,0.00,,CLR,0.21,VWS V14.01,2013-12-11 23:05:00,
2013-12-11 18:10:00,24.4,14.7,30.27,SSE,158,0.0,0.0,66,0.00,,CLR,0.21,VWS V14.01,2013-12-11 23:10:00,
2013-12-11 18:15:00,24.4,15.1,30.27,SW,225,0.0,0.0,67,0.00,,CLR,0.21,VWS V14.01,2013-12-11 23:15:00,
2013-12-11 18:20:00,24.3,15.9,30.27,NNW,338,0.0,0.0,70,0.00,,CLR,0.21,VWS V14.01,2013-12-11 23:20:00,
2013-12-11 18:25:00,24.3,16.9,30.27,SSW,202,0.0,0.0,73,0.00,,CLR,0.21,VWS V14.01,2013-12-11 23:25:00,
2013-12-11 18:30:00,23.5,15.2,30.27,SSW,202,0.0,0.0,70,0.00,,CLR,0.21,VWS V14.01,2013-12-11 23:30:00,
2013-12-11 18:35:00,23.5,15.5,30.27,South,180,0.0,0.0,71,0.00,,CLR,0.21,VWS V14.01,2013-12-11 23:35:00,
2013-12-11 18:40:00,23.0,15.6,30.24,WNW,292,0.0,0.0,73,0.00,,CLR,0.21,VWS V14.01,2013-12-11 23:40:00,
2013-12-11 18:45:00,22.8,15.2,30.24,SE,135,0.0,0.0,72,0.00,,CLR,0.21,VWS V14.01,2013-12-11 23:45:00,
2013-12-11 18:50:00,22.8,15.8,30.24,NNW,338,0.0,0.0,74,0.00,,CLR,0.21,VWS V14.01,2013-12-11 23:50:00,
2013-12-11 18:55:00,22.8,16.4,30.27,SSW,202,0.0,0.0,76,0.00,,CLR,0.21,VWS V14.01,2013-12-11 23:55:00,
2013-12-11 19:00:00,22.3,15.3,30.27,ENE,68,0.0,0.0,74,0.00,,CLR,0.21,VWS V14.01,2013-12-12 00:00:00,
2013-12-11 19:05:00,22.8,17.0,30.27,ENE,68,0.0,0.0,78,0.00,,CLR,0.21,VWS V14.01,2013-12-12 00:05:00,
2013-12-11 19:10:00,22.6,16.8,30.27,SW,225,0.0,0.0,78,0.00,,CLR,0.21,VWS V14.01,2013-12-12 00:10:00,
2013-12-11 19:15:00,22.8,17.6,30.27,SW,225,0.0,5.4,80,0.00,,CLR,0.21,VWS V14.01,2013-12-12 00:15:00,
2013-12-11 19:20:00,22.6,17.4,30.27,WSW,248,0.0,0.0,80,0.00,,CLR,0.21,VWS V14.01,2013-12-12 00:20:00,
2013-12-11 19:25:00,22.3,16.8,30.30,West,270,0.0,0.0,79,0.00,,CLR,0.21,VWS V14.01,2013-12-12 00:25:00,
2013-12-11 19:30:00,21.9,16.1,30.30,NE,45,0.0,0.0,78,0.00,,CLR,0.21,VWS V14.01,2013-12-12 00:30:00,
2013-12-11 19:35:00,22.1,16.6,30.30,East,90,0.0,0.0,79,0.00,,CLR,0.21,VWS V14.01,2013-12-12 00:35:00,
2013-12-11 19:40:00,22.1,16.9,30.30,WSW,248,0.0,0.0,80,0.00,,CLR,0.21,VWS V14.01,2013-12-12 00:40:00,
2013-12-11 19:45:00,22.1,17.2,30.30,NNW,338,0.0,0.0,81,0.00,,CLR,0.21,VWS V14.01,2013-12-12 00:45:00,
2013-12-11 19:50:00,21.7,16.5,30.30,ENE,68,0.0,0.0,80,0.00,,CLR,0.21,VWS V14.01,2013-12-12 00:50:00,
2013-12-11 19:55:00,21.6,16.4,30.30,NW,315,0.0,0.0,80,0.00,,CLR,0.21,VWS V14.01,2013-12-12 00:55:00,
2013-12-11 20:00:00,21.9,16.7,30.30,NE,45,0.0,0.0,80,0.00,,CLR,0.21,VWS V14.01,2013-12-12 01:00:00,
2013-12-11 20:05:00,21.4,16.2,30.30,NE,45,0.0,0.0,80,0.00,,CLR,0.21,VWS V14.01,2013-12-12 01:05:00,
2013-12-11 20:10:00,21.4,16.2,30.30,SE,135,0.0,0.0,80,0.00,,CLR,0.21,VWS V14.01,2013-12-12 01:10:00,
2013-12-11 20:15:00,21.4,16.2,30.30,SSW,202,0.0,0.0,80,0.00,,CLR,0.21,VWS V14.01,2013-12-12 01:15:00,
2013-12-11 20:20:00,21.7,17.1,30.30,NW,315,0.0,0.0,82,0.00,,CLR,0.21,VWS V14.01,2013-12-12 01:20:00,
2013-12-11 20:25:00,21.6,17.2,30.33,NE,45,0.0,0.0,83,0.00,,CLR,0.21,VWS V14.01,2013-12-12 01:25:00,
2013-12-11 20:30:00,21.4,16.8,30.33,NE,45,0.0,0.0,82,0.00,,CLR,0.21,VWS V14.01,2013-12-12 01:30:00,
2013-12-11 20:35:00,21.4,16.8,30.33,NNW,338,0.0,0.0,82,0.00,,CLR,0.21,VWS V14.01,2013-12-12 01:35:00,
2013-12-11 20:40:00,22.3,17.9,30.30,SW,225,0.0,0.0,83,0.00,,CLR,0.21,VWS V14.01,2013-12-12 01:40:00,
2013-12-11 20:45:00,22.3,17.9,30.30,SSW,202,0.0,0.0,83,0.00,,CLR,0.21,VWS V14.01,2013-12-12 01:45:00,
2013-12-11 20:50:00,22.5,18.1,30.30,SSE,158,0.0,0.0,83,0.00,,CLR,0.21,VWS V14.01,2013-12-12 01:50:00,
2013-12-11 20:55:00,22.1,17.5,30.33,SSE,158,0.0,0.0,82,0.00,,CLR,0.21,VWS V14.01,2013-12-12 01:55:00,
2013-12-11 21:00:00,21.9,17.0,30.33,SSW,202,0.0,0.0,81,0.00,,CLR,0.21,VWS V14.01,2013-12-12 02:00:00,
2013-12-11 21:05:00,21.2,16.0,30.33,NW,315,0.0,0.0,80,0.00,,CLR,0.21,VWS V14.01,2013-12-12 02:05:00,
2013-12-11 21:10:00,21.2,15.7,30.30,East,90,0.0,0.0,79,0.00,,CLR,0.21,VWS V14.01,2013-12-12 02:10:00,
2013-12-11 21:15:00,21.4,15.9,30.30,NNE,22,0.0,0.0,79,0.00,,CLR,0.21,VWS V14.01,2013-12-12 02:15:00,
2013-12-11 21:20:00,21.0,15.5,30.30,West,270,0.0,0.0,79,0.00,,CLR,0.21,VWS V14.01,2013-12-12 02:20:00,
2013-12-11 21:25:00,21.9,16.4,30.33,West,270,0.0,0.0,79,0.00,,CLR,0.21,VWS V14.01,2013-12-12 02:25:00,
2013-12-11 21:30:00,24.1,19.1,30.33,South,180,0.0,0.0,81,0.00,,CLR,0.21,VWS V14.01,2013-12-12 02:30:00,
2013-12-11 21:35:00,26.6,20.7,30.33,West,270,0.0,0.0,78,0.00,,CLR,0.21,VWS V14.01,2013-12-12 02:35:00,
2013-12-11 21:40:00,27.5,20.0,30.33,WNW,292,0.0,0.0,73,0.00,,CLR,0.21,VWS V14.01,2013-12-12 02:40:00,
2013-12-11 21:45:00,28.2,17.6,30.33,SW,225,0.0,0.0,64,0.00,,CLR,0.21,VWS V14.01,2013-12-12 02:45:00,
2013-12-11 21:50:00,28.2,16.5,30.33,West,270,0.0,5.4,61,0.00,,CLR,0.21,VWS V14.01,2013-12-12 02:50:00,
2013-12-11 21:55:00,29.1,15.0,30.33,SSW,202,1.6,2.9,55,0.00,,CLR,0.21,VWS V14.01,2013-12-12 02:55:00,
2013-12-11 22:00:00,29.5,14.5,30.33,WSW,248,0.0,5.4,53,0.00,,CLR,0.21,VWS V14.01,2013-12-12 03:00:00,
2013-12-11 22:05:00,29.5,14.0,30.33,West,270,2.2,3.6,52,0.00,,CLR,0.21,VWS V14.01,2013-12-12 03:05:00,
2013-12-11 22:10:00,29.7,13.8,30.33,SW,225,2.0,2.0,51,0.00,,CLR,0.21,VWS V14.01,2013-12-12 03:10:00,
2013-12-11 22:15:00,29.8,13.9,30.33,South,180,0.0,2.7,51,0.00,,CLR,0.21,VWS V14.01,2013-12-12 03:15:00,
2013-12-11 22:20:00,28.8,13.8,30.33,NNW,338,0.0,0.9,53,0.00,,CLR,0.21,VWS V14.01,2013-12-12 03:20:00,
2013-12-11 22:25:00,28.0,13.6,30.33,West,270,0.0,0.0,54,0.00,,CLR,0.21,VWS V14.01,2013-12-12 03:25:00,
2013-12-11 22:30:00,28.4,13.5,30.33,West,270,0.0,0.0,53,0.00,,CLR,0.21,VWS V14.01,2013-12-12 03:30:00,
2013-12-11 22:35:00,28.6,13.6,30.33,West,270,2.5,2.5,53,0.00,,CLR,0.21,VWS V14.01,2013-12-12 03:35:00,
2013-12-11 22:40:00,29.1,13.7,30.33,SSW,202,6.3,6.3,52,0.00,,CLR,0.21,VWS V14.01,2013-12-12 03:40:00,
2013-12-11 22:45:00,29.1,13.7,30.33,SW,225,0.0,6.3,52,0.00,,CLR,0.21,VWS V14.01,2013-12-12 03:45:00,
2013-12-11 22:50:00,28.2,13.3,30.33,SW,225,0.0,1.6,53,0.00,,CLR,0.21,VWS V14.01,2013-12-12 03:50:00,
2013-12-11 22:55:00,27.9,13.0,30.33,NNW,338,0.0,2.2,53,0.00,,CLR,0.00,VWS V14.01,2013-12-12 03:55:00,
2013-12-11 23:00:00,28.6,13.6,30.33,SSW,202,2.7,4.9,53,0.00,,CLR,0.00,VWS V14.01,2013-12-12 04:00:00,
2013-12-11 23:05:00,28.4,13.9,30.33,WSW,248,0.0,2.7,54,0.00,,CLR,0.00,VWS V14.01,2013-12-12 04:05:00,
2013-12-11 23:10:00,28.6,14.1,30.30,WNW,292,2.5,3.8,54,0.00,,CLR,0.00,VWS V14.01,2013-12-12 04:10:00,
2013-12-11 23:15:00,28.9,14.4,30.30,NW,315,2.2,6.5,54,0.00,,CLR,0.00,VWS V14.01,2013-12-12 04:15:00,
2013-12-11 23:20:00,29.1,14.6,30.30,WNW,292,6.0,6.0,54,0.00,,CLR,0.00,VWS V14.01,2013-12-12 04:20:00,
2013-12-11 23:25:00,29.1,14.6,30.33,North,0,3.1,6.0,54,0.00,,CLR,0.00,VWS V14.01,2013-12-12 04:25:00,
2013-12-11 23:30:00,29.5,14.0,30.33,NNW,338,2.9,8.5,52,0.00,,CLR,0.00,VWS V14.01,2013-12-12 04:30:00,
2013-12-11 23:35:00,29.8,13.9,30.33,West,270,6.5,12.3,51,0.00,,CLR,0.00,VWS V14.01,2013-12-12 04:35:00,
2013-12-11 23:40:00,29.8,13.5,30.33,WNW,292,3.1,9.8,50,0.00,,CLR,0.00,VWS V14.01,2013-12-12 04:40:00,
2013-12-11 23:45:00,30.2,13.4,30.33,WNW,292,2.7,8.1,49,0.00,,CLR,0.00,VWS V14.01,2013-12-12 04:45:00,
2013-12-11 23:50:00,30.0,13.6,30.33,South,180,2.9,6.3,50,0.00,,CLR,0.00,VWS V14.01,2013-12-12 04:50:00,
2013-12-11 23:55:00,29.8,13.9,30.33,South,180,5.8,7.4,51,0.00,,CLR,0.00,VWS V14.01,2013-12-12 04:55:00,